createdAt,value
2016-11-22T00:00:08.157Z,11.46
2016-11-22T00:01:07.753Z,11.45
2016-11-22T00:02:07.358Z,11.40
2016-11-22T00:03:07.944Z,11.40
2016-11-22T00:04:07.470Z,11.44
2016-11-22T00:05:08.060Z,11.49
2016-11-22T00:06:07.861Z,11.52
2016-11-22T00:07:07.407Z,11.48
2016-11-22T00:08:07.858Z,11.47
2016-11-22T00:09:07.814Z,11.47
2016-11-22T00:10:07.405Z,11.45
2016-11-22T00:11:07.958Z,11.43
2016-11-22T00:12:07.526Z,11.42
2016-11-22T00:13:08.139Z,11.43
2016-11-22T00:14:07.706Z,11.44
2016-11-22T00:15:07.278Z,11.27
2016-11-22T00:16:07.888Z,11.29
2016-11-22T00:17:07.556Z,11.33
2016-11-22T00:18:09.000Z,11.28
2016-11-22T00:19:07.634Z,11.29
2016-11-22T00:20:07.173Z,11.31
2016-11-22T00:21:07.900Z,11.35
2016-11-22T00:22:07.500Z,11.35
2016-11-22T00:23:08.095Z,11.32
2016-11-22T00:24:07.619Z,11.23
2016-11-22T00:25:07.233Z,11.29
2016-11-22T00:26:07.866Z,11.25
2016-11-22T00:27:07.346Z,11.04
2016-11-22T00:28:08.104Z,11.08
2016-11-22T00:29:07.820Z,11.17
2016-11-22T00:30:07.283Z,11.14
2016-11-22T00:31:07.902Z,11.16
2016-11-22T00:32:07.419Z,11.06
2016-11-22T00:33:08.014Z,11.07
2016-11-22T00:34:07.639Z,11.04
2016-11-22T00:35:07.189Z,11.01
2016-11-22T00:36:07.686Z,11.04
2016-11-22T00:37:07.296Z,11.08
2016-11-22T00:38:07.805Z,11.14
2016-11-22T00:39:07.293Z,11.15
2016-11-22T00:40:07.863Z,11.16
2016-11-22T00:41:07.354Z,11.14
2016-11-22T00:42:07.912Z,11.13
2016-11-22T00:43:07.539Z,11.09
2016-11-22T00:44:08.054Z,11.15
2016-11-22T00:45:07.622Z,11.14
2016-11-22T00:46:07.148Z,11.11
2016-11-22T00:47:07.721Z,11.18
2016-11-22T00:48:07.327Z,11.04
2016-11-22T00:49:07.968Z,11.15
2016-11-22T00:50:07.540Z,11.21
2016-11-22T00:51:08.166Z,11.11
2016-11-22T00:52:07.763Z,11.13
2016-11-22T00:53:07.310Z,11.15
2016-11-22T00:54:07.924Z,11.17
2016-11-22T00:55:07.508Z,11.21
2016-11-22T00:56:08.105Z,11.22
2016-11-22T00:57:07.591Z,11.25
2016-11-22T00:58:07.253Z,11.26
2016-11-22T00:59:07.833Z,11.25
2016-11-22T01:00:07.556Z,11.26
2016-11-22T01:01:08.333Z,11.27
2016-11-22T01:02:07.877Z,11.27
2016-11-22T01:03:07.500Z,11.25
2016-11-22T01:04:08.147Z,11.11
2016-11-22T01:05:07.579Z,11.14
2016-11-22T01:06:08.065Z,11.17
2016-11-22T01:07:07.604Z,11.03
2016-11-22T01:08:07.085Z,11.13
2016-11-22T01:09:07.629Z,11.16
2016-11-22T01:10:07.271Z,11.18
2016-11-22T01:11:08.051Z,11.20
2016-11-22T01:12:07.648Z,11.22
2016-11-22T01:13:07.179Z,11.18
2016-11-22T01:14:07.192Z,11.20
2016-11-22T01:15:07.700Z,11.25
2016-11-22T01:16:07.833Z,11.27
2016-11-22T01:17:07.461Z,11.33
2016-11-22T01:18:07.811Z,11.30
2016-11-22T01:19:07.414Z,11.33
2016-11-22T01:20:08.389Z,11.31
2016-11-22T01:21:08.218Z,11.25
2016-11-22T01:22:07.865Z,11.34
2016-11-22T01:23:07.372Z,11.39
2016-11-22T01:24:07.881Z,11.40
2016-11-22T01:25:07.407Z,11.31
2016-11-22T01:26:08.001Z,11.35
2016-11-22T01:27:07.509Z,11.26
2016-11-22T01:28:08.180Z,11.33
2016-11-22T01:29:07.762Z,11.38
2016-11-22T01:30:07.543Z,11.37
2016-11-22T01:31:08.136Z,11.30
2016-11-22T01:32:07.662Z,11.34
2016-11-22T01:33:07.164Z,11.35
2016-11-22T01:34:07.711Z,11.34
2016-11-22T01:35:07.195Z,11.35
2016-11-22T01:36:07.848Z,11.35
2016-11-22T01:37:07.352Z,11.34
2016-11-22T01:38:07.119Z,11.40
2016-11-22T01:39:07.957Z,11.44
2016-11-22T01:40:07.490Z,11.42
2016-11-22T01:41:15.259Z,11.41
2016-11-22T01:42:07.738Z,11.38
2016-11-22T01:43:07.367Z,11.38
2016-11-22T01:44:07.839Z,11.41
2016-11-22T01:45:08.184Z,11.41
2016-11-22T01:46:07.775Z,11.45
2016-11-22T01:47:07.357Z,11.45
2016-11-22T01:48:07.901Z,11.42
2016-11-22T01:49:07.536Z,11.41
2016-11-22T01:50:08.112Z,11.44
2016-11-22T01:51:07.677Z,11.44
2016-11-22T01:52:07.249Z,11.45
2016-11-22T01:53:07.749Z,11.39
2016-11-22T01:54:07.259Z,11.44
2016-11-22T01:55:07.875Z,11.46
2016-11-22T01:56:07.366Z,11.43
2016-11-22T01:57:07.774Z,11.42
2016-11-22T01:58:07.426Z,11.39
2016-11-22T01:59:07.964Z,11.40
2016-11-22T02:00:07.510Z,11.34
2016-11-22T02:01:08.174Z,11.34
2016-11-22T02:02:07.982Z,11.47
2016-11-22T02:03:07.486Z,11.47
2016-11-22T02:04:08.060Z,11.48
2016-11-22T02:05:07.630Z,11.43
2016-11-22T02:06:07.152Z,11.37
2016-11-22T02:07:07.730Z,11.38
2016-11-22T02:08:07.253Z,11.32
2016-11-22T02:09:07.278Z,11.30
2016-11-22T02:10:07.871Z,11.15
2016-11-22T02:11:07.322Z,11.23
2016-11-22T02:12:07.747Z,11.16
2016-11-22T02:13:07.238Z,11.16
2016-11-22T02:14:07.841Z,11.19
2016-11-22T02:15:07.381Z,11.23
2016-11-22T02:16:07.838Z,11.23
2016-11-22T02:17:08.052Z,11.28
2016-11-22T02:18:07.552Z,11.25
2016-11-22T02:19:08.124Z,11.32
2016-11-22T02:20:07.670Z,11.37
2016-11-22T02:21:07.307Z,11.29
2016-11-22T02:22:08.043Z,11.31
2016-11-22T02:23:08.683Z,11.31
2016-11-22T02:24:07.209Z,11.31
2016-11-22T02:25:07.689Z,11.23
2016-11-22T02:26:07.761Z,11.33
2016-11-22T02:27:07.287Z,11.15
2016-11-22T02:28:07.998Z,11.24
2016-11-22T02:29:07.549Z,11.27
2016-11-22T02:30:08.142Z,11.26
2016-11-22T02:31:07.763Z,11.28
2016-11-22T02:32:07.410Z,11.29
2016-11-22T02:33:08.102Z,11.29
2016-11-22T02:34:07.710Z,11.31
2016-11-22T02:35:07.343Z,11.34
2016-11-22T02:36:07.947Z,11.32
2016-11-22T02:37:07.485Z,11.19
2016-11-22T02:38:08.156Z,11.20
2016-11-22T02:39:07.689Z,11.21
2016-11-22T02:40:07.766Z,11.30
2016-11-22T02:41:07.455Z,11.26
2016-11-22T02:42:08.006Z,11.20
2016-11-22T02:43:07.475Z,11.22
2016-11-22T02:44:07.675Z,11.21
2016-11-22T02:45:07.296Z,11.20
2016-11-22T02:46:07.848Z,11.18
2016-11-22T02:47:07.447Z,11.18
2016-11-22T02:48:08.006Z,11.21
2016-11-22T02:49:07.466Z,11.24
2016-11-22T02:50:08.022Z,11.23
2016-11-22T02:51:07.536Z,11.19
2016-11-22T02:52:08.218Z,11.18
2016-11-22T02:53:07.824Z,11.14
2016-11-22T02:54:07.390Z,11.05
2016-11-22T02:55:07.846Z,11.08
2016-11-22T02:56:07.828Z,11.03
2016-11-22T02:57:07.383Z,11.09
2016-11-22T02:58:08.049Z,11.12
2016-11-22T02:59:07.873Z,11.05
2016-11-22T03:00:07.480Z,11.05
2016-11-22T03:01:08.081Z,10.90
2016-11-22T03:02:07.663Z,11.02
2016-11-22T03:03:07.329Z,11.05
2016-11-22T03:04:07.925Z,11.03
2016-11-22T03:05:07.436Z,11.10
2016-11-22T03:06:07.973Z,11.08
2016-11-22T03:07:07.520Z,11.13
2016-11-22T03:08:09.319Z,11.08
2016-11-22T03:09:07.768Z,10.97
2016-11-22T03:10:07.964Z,11.04
2016-11-22T03:11:07.533Z,11.12
2016-11-22T03:12:09.036Z,11.07
2016-11-22T03:13:08.055Z,11.08
2016-11-22T03:14:07.545Z,11.10
2016-11-22T03:15:07.636Z,11.14
2016-11-22T03:16:07.219Z,11.11
2016-11-22T03:17:07.946Z,11.09
2016-11-22T03:18:13.941Z,11.05
2016-11-22T03:19:07.701Z,11.02
2016-11-22T03:20:07.209Z,10.99
2016-11-22T03:21:07.578Z,11.05
2016-11-22T03:22:08.198Z,11.06
2016-11-22T03:23:07.778Z,11.04
2016-11-22T03:24:07.251Z,11.09
2016-11-22T03:25:07.801Z,11.01
2016-11-22T03:26:07.368Z,11.05
2016-11-22T03:27:07.862Z,10.97
2016-11-22T03:28:07.937Z,10.92
2016-11-22T03:29:07.546Z,11.04
2016-11-22T03:30:08.013Z,11.09
2016-11-22T03:31:08.182Z,10.97
2016-11-22T03:32:07.796Z,11.09
2016-11-22T03:33:07.296Z,11.07
2016-11-22T03:34:07.944Z,11.09
2016-11-22T03:35:07.505Z,10.94
2016-11-22T03:36:08.127Z,11.04
2016-11-22T03:37:07.723Z,11.09
2016-11-22T03:38:07.329Z,11.10
2016-11-22T03:39:07.974Z,11.12
2016-11-22T03:40:07.445Z,11.10
2016-11-22T03:41:07.231Z,11.06
2016-11-22T03:42:07.870Z,11.07
2016-11-22T03:43:07.519Z,11.01
2016-11-22T03:44:08.103Z,11.01
2016-11-22T03:45:07.717Z,11.10
2016-11-22T03:46:07.373Z,11.11
2016-11-22T03:47:07.994Z,10.99
2016-11-22T03:48:07.566Z,11.02
2016-11-22T03:49:08.142Z,11.09
2016-11-22T03:50:07.597Z,11.12
2016-11-22T03:51:07.587Z,11.19
2016-11-22T03:52:07.226Z,11.22
2016-11-22T03:53:07.828Z,11.18
2016-11-22T03:54:07.290Z,11.11
2016-11-22T03:55:08.081Z,11.07
2016-11-22T03:56:07.642Z,11.11
2016-11-22T03:57:07.194Z,11.04
2016-11-22T03:58:07.984Z,11.05
2016-11-22T03:59:07.543Z,11.08
2016-11-22T04:00:08.077Z,11.13
2016-11-22T04:01:07.658Z,10.99
2016-11-22T04:02:07.250Z,10.87
2016-11-22T04:03:07.871Z,11.01
2016-11-22T04:04:07.362Z,11.09
2016-11-22T04:05:07.966Z,11.06
2016-11-22T04:06:07.869Z,10.91
2016-11-22T04:07:07.471Z,11.01
2016-11-22T04:08:08.057Z,11.02
2016-11-22T04:09:07.528Z,10.98
2016-11-22T04:10:08.044Z,10.90
2016-11-22T04:11:07.633Z,10.97
2016-11-22T04:12:07.203Z,11.04
2016-11-22T04:13:07.733Z,11.09
2016-11-22T04:14:07.299Z,11.13
2016-11-22T04:15:07.853Z,11.07
2016-11-22T04:16:07.434Z,11.09
2016-11-22T04:17:08.141Z,11.08
2016-11-22T04:18:07.751Z,10.96
2016-11-22T04:19:07.342Z,11.04
2016-11-22T04:20:07.923Z,11.02
2016-11-22T04:21:07.376Z,10.93
2016-11-22T04:22:07.478Z,10.98
2016-11-22T04:23:08.106Z,10.97
2016-11-22T04:24:07.771Z,10.98
2016-11-22T04:25:07.356Z,10.95
2016-11-22T04:26:07.935Z,10.91
2016-11-22T04:27:07.533Z,10.93
2016-11-22T04:28:08.297Z,10.80
2016-11-22T04:29:07.916Z,10.92
2016-11-22T04:30:07.405Z,10.93
2016-11-22T04:31:07.955Z,10.72
2016-11-22T04:32:07.510Z,10.82
2016-11-22T04:33:08.145Z,10.93
2016-11-22T04:34:07.733Z,10.97
2016-11-22T04:35:07.316Z,10.85
2016-11-22T04:36:07.867Z,10.92
2016-11-22T04:37:07.391Z,10.99
2016-11-22T04:38:07.884Z,10.98
2016-11-22T04:39:07.497Z,10.97
2016-11-22T04:40:08.032Z,10.84
2016-11-22T04:41:07.608Z,10.95
2016-11-22T04:42:07.304Z,10.84
2016-11-22T04:43:07.723Z,10.91
2016-11-22T04:44:08.057Z,10.86
2016-11-22T04:45:07.724Z,10.90
2016-11-22T04:46:07.240Z,10.94
2016-11-22T04:47:08.394Z,10.86
2016-11-22T04:48:07.826Z,10.92
2016-11-22T04:49:07.142Z,10.98
2016-11-22T04:50:07.909Z,11.00
2016-11-22T04:51:07.488Z,10.98
2016-11-22T04:52:08.102Z,10.86
2016-11-22T04:53:07.776Z,10.84
2016-11-22T04:54:07.445Z,10.92
2016-11-22T04:55:07.103Z,10.81
2016-11-22T04:56:07.772Z,10.77
2016-11-22T04:57:07.243Z,10.82
2016-11-22T04:58:07.890Z,10.87
2016-11-22T04:59:07.503Z,10.81
2016-11-22T05:00:08.108Z,10.74
2016-11-22T05:01:08.017Z,10.83
2016-11-22T05:02:07.872Z,10.90
2016-11-22T05:03:07.456Z,10.89
2016-11-22T05:04:08.076Z,10.90
2016-11-22T05:05:07.690Z,10.74
2016-11-22T05:06:07.421Z,10.68
2016-11-22T05:07:08.115Z,10.85
2016-11-22T05:08:07.660Z,10.76
2016-11-22T05:09:07.255Z,10.85
2016-11-22T05:10:07.843Z,10.85
2016-11-22T05:11:07.430Z,10.83
2016-11-22T05:12:07.954Z,10.83
2016-11-22T05:13:07.409Z,10.88
2016-11-22T05:14:07.314Z,10.84
2016-11-22T05:15:07.880Z,10.84
2016-11-22T05:16:07.414Z,10.83
2016-11-22T05:17:07.314Z,10.89
2016-11-22T05:18:07.888Z,10.89
2016-11-22T05:19:07.504Z,10.87
2016-11-22T05:20:07.947Z,10.80
2016-11-22T05:21:07.675Z,10.86
2016-11-22T05:22:07.186Z,10.86
2016-11-22T05:23:07.950Z,10.85
2016-11-22T05:24:07.509Z,10.80
2016-11-22T05:25:10.772Z,10.83
2016-11-22T05:26:07.721Z,10.93
2016-11-22T05:27:07.355Z,10.95
2016-11-22T05:28:07.956Z,10.92
2016-11-22T05:29:07.391Z,10.84
2016-11-22T05:30:07.942Z,10.86
2016-11-22T05:31:07.490Z,10.87
2016-11-22T05:32:07.941Z,10.88
2016-11-22T05:33:07.846Z,10.89
2016-11-22T05:34:07.332Z,10.80
2016-11-22T05:35:07.877Z,10.87
2016-11-22T05:36:07.531Z,10.86
2016-11-22T05:37:08.061Z,10.86
2016-11-22T05:38:07.564Z,10.85
2016-11-22T05:39:08.156Z,10.85
2016-11-22T05:40:07.671Z,10.83
2016-11-22T05:41:07.207Z,10.84
2016-11-22T05:42:07.748Z,10.81
2016-11-22T05:43:07.324Z,10.60
2016-11-22T05:44:07.947Z,10.54
2016-11-22T05:45:07.567Z,10.56
2016-11-22T05:46:07.282Z,10.63
2016-11-22T05:47:07.853Z,10.66
2016-11-22T05:48:07.339Z,10.55
2016-11-22T05:49:07.890Z,10.54
2016-11-22T05:50:07.495Z,10.23
2016-11-22T05:51:08.041Z,10.26
2016-11-22T05:52:07.569Z,10.25
2016-11-22T05:53:08.154Z,10.38
2016-11-22T05:54:07.720Z,10.43
2016-11-22T05:55:22.692Z,10.40
2016-11-22T05:56:07.255Z,10.36
2016-11-22T05:57:07.832Z,10.42
2016-11-22T05:58:07.461Z,10.31
2016-11-22T05:59:08.075Z,10.38
2016-11-22T06:00:07.670Z,10.37
2016-11-22T06:01:07.185Z,10.33
2016-11-22T06:02:07.747Z,10.37
2016-11-22T06:03:07.274Z,10.35
2016-11-22T06:04:07.816Z,10.44
2016-11-22T06:05:07.306Z,10.38
2016-11-22T06:06:07.909Z,10.26
2016-11-22T06:07:07.523Z,10.38
2016-11-22T06:08:07.992Z,10.39
2016-11-22T06:09:07.608Z,10.22
2016-11-22T06:10:07.212Z,10.01
2016-11-22T06:11:07.800Z,10.11
2016-11-22T06:12:07.494Z,10.16
2016-11-22T06:13:08.086Z,10.17
2016-11-22T06:14:07.633Z,10.15
2016-11-22T06:15:07.230Z,10.23
2016-11-22T06:16:07.832Z,10.22
2016-11-22T06:17:07.513Z,10.13
2016-11-22T06:18:08.051Z,10.21
2016-11-22T06:19:07.581Z,10.20
2016-11-22T06:20:08.142Z,10.18
2016-11-22T06:21:07.702Z,10.24
2016-11-22T06:22:07.311Z,10.22
2016-11-22T06:23:08.019Z,10.21
2016-11-22T06:24:07.620Z,10.11
2016-11-22T06:25:07.154Z,10.17
2016-11-22T06:26:07.725Z,10.20
2016-11-22T06:27:07.362Z,10.21
2016-11-22T06:28:07.979Z,10.13
2016-11-22T06:29:07.567Z,10.09
2016-11-22T06:30:08.136Z,10.09
2016-11-22T06:31:08.053Z,10.07
2016-11-22T06:32:07.509Z,9.90
2016-11-22T06:33:08.100Z,9.98
2016-11-22T06:34:07.807Z,9.94
2016-11-22T06:35:07.374Z,9.86
2016-11-22T06:36:08.038Z,9.93
2016-11-22T06:37:07.572Z,10.01
2016-11-22T06:38:08.187Z,9.90
2016-11-22T06:39:07.846Z,9.99
2016-11-22T06:40:07.360Z,9.95
2016-11-22T06:41:07.963Z,9.89
2016-11-22T06:42:07.495Z,9.80
2016-11-22T06:43:08.119Z,9.70
2016-11-22T06:44:07.668Z,9.88
2016-11-22T06:45:07.344Z,9.89
2016-11-22T06:46:07.933Z,9.94
2016-11-22T06:47:07.489Z,9.91
2016-11-22T06:48:08.096Z,9.91
2016-11-22T06:49:07.638Z,9.89
2016-11-22T06:50:07.168Z,9.97
2016-11-22T06:51:07.709Z,9.98
2016-11-22T06:52:07.311Z,9.97
2016-11-22T06:53:07.897Z,10.04
2016-11-22T06:54:07.586Z,10.02
2016-11-22T06:55:07.187Z,10.00
2016-11-22T06:56:07.789Z,10.01
2016-11-22T06:57:07.294Z,9.97
2016-11-22T06:58:07.984Z,9.99
2016-11-22T06:59:07.861Z,10.04
2016-11-22T07:00:07.471Z,10.04
2016-11-22T07:01:08.015Z,10.03
2016-11-22T07:02:07.516Z,10.02
2016-11-22T07:03:08.154Z,10.06
2016-11-22T07:04:07.748Z,10.07
2016-11-22T07:05:07.295Z,10.02
2016-11-22T07:06:08.536Z,9.83
2016-11-22T07:07:07.698Z,9.78
2016-11-22T07:08:07.384Z,9.85
2016-11-22T07:09:08.183Z,9.75
2016-11-22T07:10:07.713Z,9.74
2016-11-22T07:11:07.575Z,9.82
2016-11-22T07:12:07.109Z,10.01
2016-11-22T07:13:07.795Z,10.19
2016-11-22T07:14:07.388Z,10.41
2016-11-22T07:15:07.938Z,10.58
2016-11-22T07:16:07.939Z,10.72
2016-11-22T07:17:07.727Z,10.77
2016-11-22T07:18:07.587Z,10.76
2016-11-22T07:19:07.274Z,10.75
2016-11-22T07:20:08.764Z,10.72
2016-11-22T07:21:07.377Z,10.71
2016-11-22T07:22:08.170Z,10.69
2016-11-22T07:23:07.809Z,10.70
2016-11-22T07:24:07.862Z,10.79
2016-11-22T07:25:07.457Z,10.84
2016-11-22T07:26:08.065Z,10.83
2016-11-22T07:27:07.667Z,10.86
2016-11-22T07:28:07.406Z,10.92
2016-11-22T07:29:08.043Z,10.98
2016-11-22T07:30:07.875Z,11.08
2016-11-22T07:31:07.453Z,11.18
2016-11-22T07:32:08.028Z,11.22
2016-11-22T07:33:07.600Z,11.26
2016-11-22T07:34:07.177Z,11.31
2016-11-22T07:35:07.786Z,11.31
2016-11-22T07:36:07.413Z,11.33
2016-11-22T07:37:07.493Z,11.40
2016-11-22T07:38:08.053Z,11.53
2016-11-22T07:39:07.537Z,11.43
2016-11-22T07:40:08.149Z,11.34
2016-11-22T07:41:07.658Z,11.50
2016-11-22T07:42:07.224Z,11.54
2016-11-22T07:43:07.863Z,11.43
2016-11-22T07:44:07.377Z,11.35
2016-11-22T07:45:07.973Z,11.12
2016-11-22T07:46:07.567Z,11.23
2016-11-22T07:47:07.145Z,11.28
2016-11-22T07:48:07.834Z,11.39
2016-11-22T07:49:07.510Z,11.47
2016-11-22T07:50:08.149Z,11.52
2016-11-22T07:51:07.755Z,11.50
2016-11-22T07:52:07.271Z,11.52
2016-11-22T07:53:07.794Z,11.56
2016-11-22T07:54:07.387Z,11.63
2016-11-22T07:55:07.932Z,11.62
2016-11-22T07:56:07.811Z,11.62
2016-11-22T07:57:07.395Z,11.54
2016-11-22T07:58:08.050Z,11.55
2016-11-22T07:59:07.770Z,11.57
2016-11-22T08:00:07.332Z,11.57
2016-11-22T08:01:07.865Z,11.68
2016-11-22T08:02:07.461Z,11.72
2016-11-22T08:03:08.054Z,11.69
2016-11-22T08:04:07.550Z,11.68
2016-11-22T08:05:08.057Z,11.68
2016-11-22T08:06:07.600Z,11.72
2016-11-22T08:07:07.965Z,11.70
2016-11-22T08:08:07.611Z,11.66
2016-11-22T08:09:07.352Z,11.70
2016-11-22T08:10:07.966Z,11.76
2016-11-22T08:11:07.495Z,11.79
2016-11-22T08:12:08.003Z,11.74
2016-11-22T08:13:07.714Z,11.64
2016-11-22T08:14:07.418Z,11.64
2016-11-22T08:15:08.008Z,11.66
2016-11-22T08:16:07.719Z,11.72
2016-11-22T08:17:07.468Z,11.81
2016-11-22T08:18:08.024Z,11.83
2016-11-22T08:19:07.534Z,11.87
2016-11-22T08:20:08.194Z,11.88
2016-11-22T08:21:07.827Z,11.84
2016-11-22T08:22:07.407Z,11.89
2016-11-22T08:23:08.041Z,11.91
2016-11-22T08:24:07.664Z,11.91
2016-11-22T08:25:07.256Z,11.98
2016-11-22T08:26:07.924Z,12.04
2016-11-22T08:27:07.476Z,12.04
2016-11-22T08:28:08.182Z,11.91
2016-11-22T08:29:07.736Z,11.81
2016-11-22T08:30:07.413Z,11.81
2016-11-22T08:31:08.037Z,11.86
2016-11-22T08:32:07.771Z,12.01
2016-11-22T08:33:07.362Z,12.01
2016-11-22T08:34:07.837Z,12.00
2016-11-22T08:35:07.324Z,12.07
2016-11-22T08:36:07.890Z,12.11
2016-11-22T08:37:07.488Z,12.12
2016-11-22T08:38:08.069Z,12.14
2016-11-22T08:39:07.669Z,12.10
2016-11-22T08:40:07.770Z,12.13
2016-11-22T08:41:07.433Z,12.15
2016-11-22T08:42:08.066Z,12.16
2016-11-22T08:43:07.651Z,12.22
2016-11-22T08:44:07.240Z,12.19
2016-11-22T08:45:07.841Z,12.10
2016-11-22T08:46:07.795Z,12.16
2016-11-22T08:47:07.463Z,12.17
2016-11-22T08:48:08.058Z,12.19
2016-11-22T08:49:07.556Z,12.27
2016-11-22T08:50:08.118Z,12.37
2016-11-22T08:51:07.772Z,12.25
2016-11-22T08:52:07.378Z,12.30
2016-11-22T08:53:07.812Z,12.25
2016-11-22T08:54:07.431Z,12.28
2016-11-22T08:55:08.032Z,12.30
2016-11-22T08:56:07.677Z,12.23
2016-11-22T08:57:07.247Z,12.28
2016-11-22T08:58:08.021Z,12.31
2016-11-22T08:59:07.528Z,12.28
2016-11-22T09:00:08.170Z,12.29
2016-11-22T09:01:07.821Z,12.30
2016-11-22T09:02:07.295Z,12.29
2016-11-22T09:03:07.855Z,12.35
2016-11-22T09:04:07.505Z,12.32
2016-11-22T09:05:08.111Z,12.33
2016-11-22T09:06:08.716Z,12.29
2016-11-22T09:07:07.854Z,12.30
2016-11-22T09:08:07.803Z,12.32
2016-11-22T09:09:07.550Z,12.28
2016-11-22T09:10:08.122Z,12.37
2016-11-22T09:11:07.721Z,12.31
2016-11-22T09:12:07.292Z,12.33
2016-11-22T09:13:07.845Z,12.32
2016-11-22T09:14:07.429Z,12.34
2016-11-22T09:15:08.038Z,12.33
2016-11-22T09:16:07.660Z,12.31
2016-11-22T09:17:07.330Z,12.33
2016-11-22T09:18:08.161Z,12.34
2016-11-22T09:19:08.035Z,12.36
2016-11-22T09:20:08.409Z,12.41
2016-11-22T09:21:08.010Z,12.53
2016-11-22T09:22:07.615Z,12.48
2016-11-22T09:23:07.158Z,12.43
2016-11-22T09:24:07.783Z,12.51
2016-11-22T09:25:07.391Z,12.49
2016-11-22T09:26:07.979Z,12.46
2016-11-22T09:27:07.526Z,12.52
2016-11-22T09:28:08.193Z,12.51
2016-11-22T09:29:07.727Z,12.48
2016-11-22T09:30:07.317Z,12.56
2016-11-22T09:31:08.040Z,12.58
2016-11-22T09:32:07.578Z,12.56
2016-11-22T09:33:07.260Z,12.67
2016-11-22T09:34:07.831Z,12.56
2016-11-22T09:35:07.375Z,12.56
2016-11-22T09:36:07.940Z,12.65
2016-11-22T09:37:07.590Z,12.59
2016-11-22T09:38:07.276Z,12.74
2016-11-22T09:39:07.821Z,12.75
2016-11-22T09:40:07.461Z,12.74
2016-11-22T09:41:07.972Z,12.71
2016-11-22T09:42:07.555Z,12.75
2016-11-22T09:43:08.214Z,12.76
2016-11-22T09:44:07.758Z,12.71
2016-11-22T09:45:07.383Z,12.78
2016-11-22T09:46:07.909Z,12.84
2016-11-22T09:47:07.502Z,12.90
2016-11-22T09:48:07.950Z,12.98
2016-11-22T09:49:07.879Z,12.99
2016-11-22T09:50:07.495Z,12.93
2016-11-22T09:51:08.182Z,12.94
2016-11-22T09:52:07.844Z,12.90
2016-11-22T09:53:07.301Z,12.83
2016-11-22T09:54:07.909Z,12.87
2016-11-22T09:55:07.619Z,12.84
2016-11-22T09:56:07.294Z,12.90
2016-11-22T09:57:07.909Z,12.96
2016-11-22T09:58:07.586Z,13.03
2016-11-22T09:59:08.197Z,12.90
2016-11-22T10:00:07.744Z,12.92
2016-11-22T10:01:07.389Z,12.84
2016-11-22T10:02:08.034Z,12.88
2016-11-22T10:03:07.654Z,12.87
2016-11-22T10:04:07.190Z,12.95
2016-11-22T10:05:07.719Z,12.97
2016-11-22T10:06:07.297Z,12.93
2016-11-22T10:07:07.927Z,12.89
2016-11-22T10:08:07.460Z,12.97
2016-11-22T10:09:08.058Z,12.97
2016-11-22T10:10:07.617Z,12.99
2016-11-22T10:11:07.237Z,12.96
2016-11-22T10:12:07.849Z,12.94
2016-11-22T10:13:07.528Z,12.95
2016-11-22T10:14:08.182Z,12.92
2016-11-22T10:15:07.706Z,12.96
2016-11-22T10:16:07.342Z,13.00
2016-11-22T10:17:08.121Z,12.93
2016-11-22T10:18:07.726Z,12.96
2016-11-22T10:19:07.326Z,13.00
2016-11-22T10:20:07.871Z,12.90
2016-11-22T10:21:07.461Z,12.93
2016-11-22T10:22:07.959Z,13.01
2016-11-22T10:23:07.603Z,13.05
2016-11-22T10:24:07.116Z,13.06
2016-11-22T10:25:07.691Z,13.07
2016-11-22T10:26:07.401Z,13.05
2016-11-22T10:27:07.947Z,13.15
2016-11-22T10:28:07.533Z,13.15
2016-11-22T10:29:08.166Z,13.07
2016-11-22T10:30:07.730Z,13.10
2016-11-22T10:31:07.308Z,13.17
2016-11-22T10:32:07.877Z,13.26
2016-11-22T10:33:07.468Z,13.28
2016-11-22T10:34:08.077Z,13.25
2016-11-22T10:35:07.735Z,13.15
2016-11-22T10:36:07.307Z,13.17
2016-11-22T10:37:07.819Z,13.17
2016-11-22T10:38:07.389Z,13.22
2016-11-22T10:39:08.030Z,13.31
2016-11-22T10:40:07.527Z,13.20
2016-11-22T10:41:07.993Z,13.25
2016-11-22T10:42:07.958Z,13.30
2016-11-22T10:43:07.623Z,13.28
2016-11-22T10:44:07.265Z,13.25
2016-11-22T10:45:07.865Z,13.27
2016-11-22T10:46:07.462Z,13.28
2016-11-22T10:47:08.085Z,13.24
2016-11-22T10:48:07.694Z,13.22
2016-11-22T10:49:07.226Z,13.28
2016-11-22T10:50:07.816Z,13.32
2016-11-22T10:51:07.330Z,13.41
2016-11-22T10:52:07.895Z,13.38
2016-11-22T10:53:07.518Z,13.38
2016-11-22T10:54:08.157Z,13.43
2016-11-22T10:55:07.711Z,13.48
2016-11-22T10:56:07.188Z,13.46
2016-11-22T10:57:07.704Z,13.49
2016-11-22T10:58:07.576Z,13.40
2016-11-22T10:59:08.136Z,13.44
2016-11-22T11:00:07.761Z,13.44
2016-11-22T11:01:07.227Z,13.46
2016-11-22T11:02:07.845Z,13.49
2016-11-22T11:03:07.449Z,13.44
2016-11-22T11:04:08.045Z,13.40
2016-11-22T11:05:07.708Z,13.43
2016-11-22T11:06:07.270Z,13.43
2016-11-22T11:07:07.799Z,13.44
2016-11-22T11:08:07.353Z,13.46
2016-11-22T11:09:07.965Z,13.48
2016-11-22T11:10:07.575Z,13.52
2016-11-22T11:11:08.174Z,13.54
2016-11-22T11:12:07.804Z,13.58
2016-11-22T11:13:07.423Z,13.51
2016-11-22T11:14:08.045Z,13.54
2016-11-22T11:15:07.628Z,13.52
2016-11-22T11:16:07.219Z,13.50
2016-11-22T11:17:07.903Z,13.44
2016-11-22T11:18:07.517Z,13.45
2016-11-22T11:19:08.065Z,13.50
2016-11-22T11:20:07.629Z,13.47
2016-11-22T11:21:07.168Z,13.43
2016-11-22T11:22:07.678Z,13.47
2016-11-22T11:23:07.242Z,13.44
2016-11-22T11:24:07.425Z,13.43
2016-11-22T11:25:08.057Z,13.45
2016-11-22T11:26:07.657Z,13.50
2016-11-22T11:27:07.247Z,13.49
2016-11-22T11:28:07.916Z,13.47
2016-11-22T11:29:07.408Z,13.47
2016-11-22T11:30:07.897Z,13.49
2016-11-22T11:31:07.455Z,13.50
2016-11-22T11:32:08.087Z,13.50
2016-11-22T11:33:07.647Z,13.55
2016-11-22T11:34:07.167Z,13.54
2016-11-22T11:35:07.736Z,13.49
2016-11-22T11:36:07.278Z,13.49
2016-11-22T11:37:07.877Z,13.54
2016-11-22T11:38:07.467Z,13.62
2016-11-22T11:39:08.012Z,13.65
2016-11-22T11:40:07.514Z,13.57
2016-11-22T11:41:08.195Z,13.56
2016-11-22T11:42:07.737Z,13.60
2016-11-22T11:43:07.285Z,13.58
2016-11-22T11:44:07.815Z,13.63
2016-11-22T11:45:07.315Z,13.66
2016-11-22T11:46:07.422Z,13.73
2016-11-22T11:47:08.083Z,13.76
2016-11-22T11:48:07.703Z,13.70
2016-11-22T11:49:07.242Z,13.70
2016-11-22T11:50:07.774Z,13.73
2016-11-22T11:51:07.372Z,13.73
2016-11-22T11:52:07.947Z,13.64
2016-11-22T11:53:07.509Z,13.60
2016-11-22T11:54:07.989Z,13.61
2016-11-22T11:55:07.486Z,13.64
2016-11-22T11:56:08.047Z,13.64
2016-11-22T11:57:07.515Z,13.69
2016-11-22T11:58:08.224Z,13.70
2016-11-22T11:59:07.777Z,13.76
2016-11-22T12:00:07.278Z,13.79
2016-11-22T12:01:07.880Z,13.82
2016-11-22T12:02:07.420Z,13.86
2016-11-22T12:03:08.002Z,13.83
2016-11-22T12:04:07.549Z,13.72
2016-11-22T12:05:08.141Z,13.68
2016-11-22T12:06:07.730Z,13.65
2016-11-22T12:07:07.374Z,13.61
2016-11-22T12:08:07.905Z,13.63
2016-11-22T12:09:07.605Z,13.69
2016-11-22T12:10:07.286Z,13.63
2016-11-22T12:11:07.873Z,13.58
2016-11-22T12:12:07.468Z,13.64
2016-11-22T12:13:08.119Z,13.63
2016-11-22T12:14:07.644Z,13.62
2016-11-22T12:15:07.116Z,13.72
2016-11-22T12:16:07.289Z,13.78
2016-11-22T12:17:08.019Z,13.79
2016-11-22T12:18:07.527Z,13.88
2016-11-22T12:19:08.076Z,13.89
2016-11-22T12:20:07.795Z,13.89
2016-11-22T12:21:07.326Z,13.94
2016-11-22T12:22:07.870Z,13.95
2016-11-22T12:23:07.373Z,13.93
2016-11-22T12:24:07.904Z,13.96
2016-11-22T12:25:07.425Z,13.96
2016-11-22T12:26:08.046Z,13.99
2016-11-22T12:27:07.599Z,14.09
2016-11-22T12:28:07.263Z,14.13
2016-11-22T12:29:07.835Z,14.04
2016-11-22T12:30:07.447Z,14.09
2016-11-22T12:31:07.939Z,14.09
2016-11-22T12:32:07.466Z,14.16
2016-11-22T12:33:08.045Z,14.20
2016-11-22T12:34:07.586Z,14.21
2016-11-22T12:35:07.185Z,14.18
2016-11-22T12:36:07.826Z,14.10
2016-11-22T12:37:07.326Z,14.14
2016-11-22T12:38:07.937Z,14.05
2016-11-22T12:39:07.477Z,14.07
2016-11-22T12:40:08.010Z,14.05
2016-11-22T12:41:07.604Z,14.13
2016-11-22T12:42:07.180Z,14.13
2016-11-22T12:43:07.765Z,14.12
2016-11-22T12:44:07.289Z,14.10
2016-11-22T12:45:07.842Z,14.11
2016-11-22T12:46:07.441Z,14.14
2016-11-22T12:47:07.967Z,14.10
2016-11-22T12:48:07.536Z,14.06
2016-11-22T12:49:08.127Z,14.09
2016-11-22T12:50:07.672Z,14.07
2016-11-22T12:51:07.219Z,14.09
2016-11-22T12:52:07.820Z,14.04
2016-11-22T12:53:07.381Z,14.03